NWS Home NWS Lubbock West Texas Mesonet                      Daily Summary For 10/20/2020

Latest   N   C   S   Daily Sum   3hrΔ   24hrΔ   Soil Data 
Site Map   24hr Precip   72hr Precip   Google Plot


Station Time of Last Max Temp Min Temp Max/Min Dew Pt. Max/Min RH 10m Avg Wind 2m Avg Wind Peak Gust @ 33ft (mph) Potential Evapotranspiration
mm/day or in/day
Rain Sum Solar Rad
MJ/m^2
% Clear Day Red Flag
Abernathy 5ENE 11:59 PM 49 34 36 /16 75 / 37 10.6  (SE) 7.6 25.2 mph 194° @ 0409 PM 3 or 0.12 0.00 13.4 98.5 0
Adrian 6WSW 11:59 PM 49 34 36 /16 75 / 37 15.1  (S) 11.2 32.1 mph 174° @ 0211 AM 5.6 or 0.22 0.00 19.4 149.1 0
Aiken 3WSW 11:59 PM 49 34 36 /16 75 / 37 12  (E) 9.5 27.6 mph 185° @ 0528 PM 3.3 or 0.13 0.00 14.6 108.3 0
Amarillo 15NNW 11:59 PM 49 34 36 /16 75 / 37 9.8  (E) 6.6 25 mph 177° @ 0727 AM 3.6 or 0.14 0.00 15.6 121.2 0
Amarillo 7SSE 11:59 PM 49 34 36 /16 75 / 37 12.2  (SE) 8.5 23.4 mph 206° @ 1105 AM 3.8 or 0.15 0.00 15.1 116.4 0
Amarillo 9NNE 11:59 PM 49 34 36 /16 75 / 37 12.7  (S) 9.7 28.3 mph 178° @ 0836 AM 4.1 or 0.16 0.00 15.2 117.8 0
Amherst 1NE 11:55 PM 49 34 36 /16 75 / 37 9.3  (SE) 6.2 21.9 mph 174° @ 0535 PM 3.3 or 0.13 0.00 16.4 121 0
Andrews 2E 11:55 PM 49 34 36 /16 75 / 37 7.5  (E) 4.1 21.9 mph 171° @ 1150 AM 3.3 or 0.13 0.00 3.7 130.8 0
Anton 6SSW 11:55 PM 49 34 36 /16 75 / 37 8.8  (E) 5.8 22.7 mph 174° @ 0215 PM 3 or 0.12 0.00 15.2 111.5 0
Aspermont 3NE 11:55 PM 49 34 36 /16 75 / 37 7.5  (E) 4.7 28.3 mph 187° @ 0145 PM 2.8 or 0.11 0.00 14.9 108.5 0
Big Bend NP - Castolon 11:59 PM 49 34 36 /16 75 / 37 5.7  (NW) 4.2 23.5 mph 134° @ 0908 PM 3.6 or 0.14 0.00 18.8 120.4 0
Big Bend NP - Persimmon Gap 11:59 PM 49 34 36 /16 75 / 37 9  (N) 7.4 25.1 mph 34° @ 0718 PM 3.8 or 0.15 0.00 16.1 103.7 0
Big Lake 1WNW 11:59 PM 49 34 36 /16 75 / 37 13.1  (E) 10.4 33 mph 173° @ 1219 PM 3.3 or 0.13 0.00 15.8 107.1 0
Bootleg 11WNW 11:59 PM 49 34 36 /16 75 / 37 13  (SE) 8.5 30.9 mph 227° @ 0143 PM 4.8 or 0.19 0.00 16.1 122.1 6
Borger 7E 11:59 PM 49 34 36 /16 75 / 37 11.8  (SE) 8.5 29.6 mph 201° @ 1215 PM 3.6 or 0.14 0.00 15.1 119 0
Boys Ranch 1WSW 11:59 PM 49 34 36 /16 75 / 37 5.4  (E) 3.5 22.1 mph 74° @ 0643 PM 2.5 or 0.1 0.00 16.3 127.7 0
Brownfield 2S 11:59 PM 49 34 36 /16 75 / 37 8.8  (SE) 5.9 23 mph 194° @ 1212 PM 3.6 or 0.14 0.00 15.6 111.9 0
Canadian 6E 11:59 PM 49 34 36 /16 75 / 37 9.6  (E) 6.2 23.3 mph 50° @ 0829 PM 2.3 or 0.09 0.00 9.7 77.5 0
Caprock Canyons State Park 11:59 PM 49 34 36 /16 75 / 37 7.8  (SE) 5.3 25 mph 200° @ 0147 PM 2.8 or 0.11 0.00 13.7 103.5 0
Childress 2NNE 11:55 PM 49 34 36 /16 75 / 37 7.8  (SE) 5 24.2 mph 166° @ 0415 PM 2.5 or 0.1 0.00 10.3 78.7 0
Clarendon 2WSW 11:55 PM 49 34 36 /16 75 / 37 8.3  (SE) 5 22 mph 169° @ 0545 PM 2.8 or 0.11 0.00 13.3 101.8 0
Claude 12SW 11:59 PM 49 34 36 /16 75 / 37 9.5  (SE) 6.4 23.5 mph 178° @ 0356 PM 3 or 0.12 0.00 14.3 109.6 0
Clyde 2WNW 11:59 PM 49 34 36 /16 75 / 37 11.2  (E) 7.9 31.3 mph 199° @ 0223 PM 3.3 or 0.13 0.00 15.3 108.7 0
Colorado City 5NW 11:59 PM 49 34 36 /16 75 / 37 9  (E) 5.6 27.5 mph 174° @ 0129 PM 3 or 0.12 0.00 16.4 116.3 0
Comanche Springs 11:59 PM 49 34 36 /16 75 / 37 5.6  (N) 4 25.2 mph 167° @ 0504 PM 2.3 or 0.09 0.00 12.7 94.9 0
Coyanosa 2N 11:59 PM 49 34 36 /16 75 / 37 7.8  (SE) 4.9 23.7 mph 120° @ 0808 PM 3.8 or 0.15 0.00 19.4 131.8 0
Crane 1NNW 11:59 PM 49 34 36 /16 75 / 37 14  (E) 11.4 31.2 mph 180° @ 0331 AM 4.6 or 0.18 0.00 19.3 131.5 0
Crowell 1E 11:59 PM 49 34 36 /16 75 / 37 7.8  (E) 5.7 24.6 mph 187° @ 0519 PM 2.8 or 0.11 0.00 11.3 85 0
Dell City 11:59 PM 49 34 36 /16 75 / 37 4.5  (N) 2.5 11.1 mph 249° @ 0816 PM 2.5 or 0.1 0.00 19.5 134.1 0
Denver City 7WNW 11:55 PM 49 34 36 /16 75 / 37 7.5  (SE) 4.3 18.3 mph 196° @ 0500 PM 3.3 or 0.13 0.00 19.5 139.4 0
Dimmitt 2NE 11:55 PM 49 34 36 /16 75 / 37 14.2  (SE) 10.3 25.9 mph 183° @ 0505 PM 4.1 or 0.16 0.00 15.4 116.1 0
Doole 3WNW 11:59 PM 49 34 36 /16 75 / 37 8.6  (NE) 5.7 28.9 mph 176° @ 1119 AM 3.3 or 0.13 0.00 15 103.3 0
Dora NM 2SW 11:55 PM 49 34 36 /16 75 / 37 11.3  (S) 6.7 22.1 mph 231° @ 0240 PM 4.6 or 0.18 0.00 17.4 127.2 0
Dozier 3W 11:59 PM 49 34 36 /16 75 / 37 6  (E) 3.3 19.6 mph 186° @ 0304 PM 1.5 or 0.06 0.00 9.2 71.5 0
Earth 9WSW 11:59 PM 49 34 36 /16 75 / 37 10  (E) 4.8 26.1 mph 187° @ 0244 PM 3.8 or 0.15 0.00 17.1 127.1 0
Endee NM 2SW 11:59 PM 49 34 36 /16 75 / 37 9.3  (S) 6.1 26.6 mph 168° @ 0101 AM 4.1 or 0.16 0.00 18.1 138.3 2
Estelline 3SSE 11:59 PM 49 34 36 /16 75 / 37 5.5  (SE) 3.3 21.9 mph 160° @ 0514 PM 2.3 or 0.09 0.00 11.7 89.2 0
Floydada 2NNE 11:55 PM 49 34 36 /16 75 / 37 10.5  (SE) 6.8 28.8 mph 178° @ 0335 PM 3 or 0.12 0.00 14.3 106.2 0
Fluvanna 3WNW 11:55 PM 49 34 36 /16 75 / 37 10.1  (E) 6.4 26.8 mph 167° @ 0225 PM 3.3 or 0.13 0.00 14.8 106 0
Fort Chadbourne 11:59 PM 49 34 36 /16 75 / 37 7  (NE) 4.6 26.9 mph 188° @ 0130 PM 2.3 or 0.09 0.00 11.8 82.3 0
Fort Lancaster 11:59 PM 49 34 36 /16 75 / 37 12.6  (SE) 9 27.2 mph 156° @ 1042 AM 3.8 or 0.15 0.00 16 106.9 0
Fort Lewis CO 11:59 PM 49 34 36 /16 75 / 37 8.7  (NW) 5.6 22.5 mph 210° @ 0236 PM 2.3 or 0.09 0.00 18.7 150.7 0
Fort McKavett 11:59 PM 49 34 36 /16 75 / 37 8.3  (NE) 4.7 25.1 mph 164° @ 1216 PM 3 or 0.12 0.00 14.8 99.3 0
Friona 2NE 11:55 PM 49 34 36 /16 75 / 37 11.8  (SE) 8.5 26.5 mph 201° @ 0430 PM 4.3 or 0.17 0.00 16.7 125.6 0
Fritch 1WNW 11:59 PM 49 34 36 /16 75 / 37 10.2  (S) 8.4 25.4 mph 97° @ 1009 PM 3.3 or 0.13 0.00 15.1 118.8 0
Gail 2ESE 11:55 PM 49 34 36 /16 75 / 37 7.7  (NE) 3.9 27.2 mph 182° @ 0200 PM 3 or 0.12 0.00 3.2 114.8 0
Goodlett 3W 11:55 PM 49 34 36 /16 75 / 37 7.1  (NE) 5.1 25.8 mph 187° @ 0455 PM 2.5 or 0.1 0.00 10 75.6 0
Goodnight 11:59 PM 49 34 36 /16 75 / 37 9.4  (SE) 6.5 27.2 mph 184° @ 0206 PM 2.8 or 0.11 0.00 12.9 99.2 0
Graham 5SSW 11:55 PM 49 34 36 /16 75 / 37 10  (E) 7.3 28.7 mph 172° @ 0305 PM 3.3 or 0.13 0.00 3.1 109.8 0
Guadalupe Mtns Natl Park 11:59 PM 49 34 36 /16 75 / 37 8.3  (N) 6.1 26.7 mph 259° @ 0926 AM 3.3 or 0.13 0.00 18.5 125.6 0
Guthrie 10WSW 11:55 PM 49 34 36 /16 75 / 37 8.5  (NE) 5.8 26.3 mph 164° @ 0510 PM 3.3 or 0.13 0.00 13.5 99.4 0
Hackberry 2SSE 11:59 PM 49 34 36 /16 75 / 37 8.6  (SE) 6.9 25.9 mph 185° @ 0322 PM 3 or 0.12 0.00 12.9 96 0
Happy 1E 11:59 PM 49 34 36 /16 75 / 37 10.9  (SE) 6.9 25.4 mph 186° @ 0532 PM 3.6 or 0.14 0.00 15.6 118.6 0
Hart 3N 11:55 PM 49 34 36 /16 75 / 37 9.8  (SE) 5.6 24.8 mph 190° @ 0345 PM 3 or 0.12 0.00 15.7 117.6 0
Haskell 1NW 11:55 PM 49 34 36 /16 75 / 37 8.5  (E) 6.3 30 mph 194° @ 0125 PM 3 or 0.12 0.00 14.4 105.3 0
Hefner 1SW 11:59 PM 49 34 36 /16 75 / 37 11.1  (NE) 8.2 30.8 mph 183° @ 0221 PM 3.6 or 0.14 0.00 15.4 113.8 0
Hereford 2NW 11:55 PM 49 34 36 /16 75 / 37 10.5  (SE) 8.4 24.3 mph 191° @ 0440 PM 3.8 or 0.15 0.00 15.5 117.3 0
Hobbs NM 5NW 11:59 PM 49 34 36 /16 75 / 37 6.9  (S) 4.8 20.5 mph 171° @ 0438 PM 3 or 0.12 0.00 19.6 138.8 0
Jayton 1SSE 11:55 PM 49 34 36 /16 75 / 37 8  (E) 5.8 26.1 mph 177° @ 0155 PM 3 or 0.12 0.00 15 109.2 0
Junction 1SSW 11:59 PM 49 34 36 /16 75 / 37 8.7  (SE) 6.9 24.8 mph 154° @ 0443 PM 3.3 or 0.13 0.00 11.9 79.3 0
Kent 9E 11:59 PM 49 34 36 /16 75 / 37 6.5  (W) 3.9 21.9 mph 270° @ 0506 PM 3.3 or 0.13 0.00 19.9 132.9 0
Knox City 3NW 11:59 PM 49 34 36 /16 75 / 37 9.6  (E) 6.7 37.3 mph 190° @ 0306 PM 3.3 or 0.13 0.00 14.5 106.6 0
Lake Alan Henry 1NW 11:59 PM 49 34 36 /16 75 / 37 7.7  (E) 4.5 22.9 mph 179° @ 0312 PM 3 or 0.12 0.00 14.5 104.9 0
Lake McClellan 2NW 11:59 PM 49 34 36 /16 75 / 37 11.8  (SE) 8.5 28.5 mph 202° @ 0351 PM 2.5 or 0.1 0.00 11.6 89.7 0
Lamesa 2SE 11:55 PM 49 34 36 /16 75 / 37 9.9  (E) 6.5 27.9 mph 176° @ 0305 PM 3.6 or 0.14 0.00 17 120.6 0
Lesley 2S 11:59 PM 49 34 36 /16 75 / 37 7.8  (E) 5.2 24 mph 159° @ 0420 PM 3 or 0.12 0.00 13.3 101.7 0
Levelland 4S 11:59 PM 49 34 36 /16 75 / 37 7.8  (SE) 5.6 24.1 mph 188° @ 0310 PM 3 or 0.12 0.00 16.3 118.6 0
Lomax 1SSE 11:59 PM 49 34 36 /16 75 / 37 9.3  (E) 6.6 32 mph 168° @ 1239 PM 3.3 or 0.13 0.00 18 126 0
Lubbock 3WNW TTU 11:55 PM 49 34 36 /16 75 / 37 8.4  (SE) 4.5 22.2 mph 192° @ 0430 PM 3 or 0.12 0.00 14.2 103.5 0
McAdoo 3NNW 11:59 PM 49 34 36 /16 75 / 37 11.9  (SE) 9.2 27.4 mph 194° @ 0205 PM 3.3 or 0.13 0.00 13.8 101.6 0
McCamey 1SSW 11:59 PM 49 34 36 /16 75 / 37 14  (E) 12.2 26.4 mph 147° @ 0435 PM 4.3 or 0.17 0.00 15.6 105.7 0
McLean 1E 11:55 PM 49 34 36 /16 75 / 37 10  (SE) 7.4 24 mph 192° @ 0305 PM 1.8 or 0.07 0.00 10.1 78.6 0
Memphis 1NE 11:55 PM 49 34 36 /16 75 / 37 4.9  (N) 3.4 22 mph 126° @ 0455 PM 2 or 0.08 0.00 9.8 75.2 0
Menard 2NW 11:59 PM 49 34 36 /16 75 / 37 8.8  (N) 6.4 27 mph 173° @ 1153 AM 2.8 or 0.11 0.00 13.4 90.7 0
Mertzon 3NNE 11:59 PM 49 34 36 /16 75 / 37 7.7  (N) 4.9 28.7 mph 179° @ 1155 AM 2.5 or 0.1 0.00 14 95.3 0
Morton 1ENE 11:55 PM 49 34 36 /16 75 / 37 7.6  (SE) 5 20.7 mph 172° @ 0430 PM 3.3 or 0.13 0.00 16.1 117.5 0
Muleshoe 2SSW 11:55 PM 49 34 36 /16 75 / 37 8.6  (E) 5.4 24.2 mph 169° @ 1155 PM 3.6 or 0.14 0.00 17.3 128.6 0
New Home 11:59 PM 49 34 36 /16 75 / 37 9.4  (E) 5.8 22.8 mph 183° @ 0356 PM 3.3 or 0.13 0.00 15.6 112.7 0
Northfield 1S 11:55 PM 49 34 36 /16 75 / 37 7.7  (E) 4.8 29.5 mph 197° @ 0250 PM 2.8 or 0.11 0.00 12.5 94.1 0
O'Donnell 1N 11:55 PM 49 34 36 /16 75 / 37 9.1  (E) 5.9 26.8 mph 187° @ 0110 PM 3.3 or 0.13 0.00 14.9 106.9 0
Odell 4ENE 11:59 PM 49 34 36 /16 75 / 37 7.6  (E) 5.4 23.5 mph 175° @ 0551 PM 2.5 or 0.1 0.00 11 83.7 0
Olton 6S 11:55 PM 49 34 36 /16 75 / 37 11.2  (SE) 7.8 24.9 mph 186° @ 0115 PM 3 or 0.12 0.00 15 111 0
Paducah 10SW 11:55 PM 49 34 36 /16 75 / 37 8  (SE) 4.9 26.5 mph 191° @ 0355 PM 2.8 or 0.11 0.00 12.4 92.7 0
Palo Duro 4E (JA Ranch) 11:59 PM 49 34 36 /16 75 / 37 5.3  (SE) 3.8 19.4 mph 178° @ 0448 PM 2.3 or 0.09 0.00 14 107.3 0
Palo Duro Canyon SP Floor 11:59 PM 49 34 36 /16 75 / 37 5.5  (SE) 1.7 20.6 mph 161° @ 0444 PM 2.5 or 0.1 0.00 12.9 98.8 0
Palo Duro Canyon State Park Rim 11:59 PM 49 34 36 /16 75 / 37 8.6  (SE) 4.5 24 mph 183° @ 0533 PM 3.3 or 0.13 0.00 14.4 110.4 0
Palo Duro Reservoir 1NW 11:59 PM 49 34 36 /16 75 / 37 11  (SE) 7.8 29.8 mph 77° @ 0817 PM 3 or 0.12 0.00 14.5 117.7 0
Pampa 2E 11:55 PM 49 34 36 /16 75 / 37 13  (SE) 9.3 23.4 mph 184° @ 0100 PM 3 or 0.12 0.00 11.9 93 0
Panhandle 1SSW 11:59 PM 49 34 36 /16 75 / 37 14  (SE) 11.3 28.3 mph 189° @ 0239 PM 3.6 or 0.14 0.00 14 108.6 0
Plains 3N 11:55 PM 49 34 36 /16 75 / 37 7.4  (SE) 5 18.3 mph 175° @ 0415 PM 3.3 or 0.13 0.00 18.3 131.6 0
Plainview 1S 11:59 PM 49 34 36 /16 75 / 37 10.2  (SE) 6.5 27.4 mph 183° @ 0503 PM 3 or 0.12 0.00 16.2 120.9 0
Post 1NE 11:55 PM 49 34 36 /16 75 / 37 6.9  (NE) 4 22.4 mph 170° @ 0600 PM 3 or 0.12 0.00 3.2 115.9 0
Ralls 1SE 11:55 PM 49 34 36 /16 75 / 37 9.6  (SE) 6.6 25.3 mph 192° @ 0325 PM 3.3 or 0.13 0.00 14.5 106.2 0
Reese Center 11:59 PM 49 34 36 /16 75 / 37 10.3  (SE) 7.5 26.3 mph 197° @ 0334 PM 3.3 or 0.13 0.00 13.9 101.5 0
Roaring Springs 3N 11:55 PM 49 34 36 /16 75 / 37 9.3  (SE) 7 27.6 mph 179° @ 0220 PM 2.8 or 0.11 0.00 12.6 93.8 0
Romero 11SSW 11:59 PM 49 34 36 /16 75 / 37 6.6  (E) 4.4 16 mph 214° @ 0410 PM 2.8 or 0.11 0.00 17.7 137.9 0
Rotan 5W 11:59 PM 49 34 36 /16 75 / 37 8.8  (E) 5.7 29.1 mph 183° @ 0208 PM 3 or 0.12 0.00 15.3 110 0
San Angelo 7NW 11:55 PM 49 34 36 /16 75 / 37 8.9  (E) 5.6 28.6 mph 183° @ 0240 PM 3 or 0.12 0.00 15.9 109.8 0
Seagraves 1SW 11:55 PM 49 34 36 /16 75 / 37 6.7  (SE) 4.1 20.3 mph 180° @ 0215 PM 3 or 0.12 0.00 16.3 116 0
Segovia 7SSW 11:59 PM 49 34 36 /16 75 / 37 11.2  (SE) 8.2 26.5 mph 129° @ 0251 PM 3.6 or 0.14 0.00 15 99 0
Seminole 2NNE 11:55 PM 49 34 36 /16 75 / 37 7.2  (E) 4.3 19.7 mph 189° @ 0225 PM 3.6 or 0.14 0.00 18.2 129 0
Seymour 3NW 11:55 PM 49 34 36 /16 75 / 37 9.1  (NE) 7 25.6 mph 194° @ 0325 PM 3 or 0.12 0.00 12.6 93.7 0
Sierra Blanca 1SSE 11:59 PM 49 34 36 /16 75 / 37 5.2  (W) 4.1 21.9 mph 300° @ 0406 PM 2.5 or 0.1 0.00 18.7 124.9 0
Silverton 7ESE 11:55 PM 49 34 36 /16 75 / 37 11.8  (SE) 8.4 28.5 mph 185° @ 0115 PM 3.3 or 0.13 0.00 13 98 0
Slaton 2NE 11:59 PM 49 34 36 /16 75 / 37 10.4  (E) 8 27.4 mph 197° @ 0140 PM 3.3 or 0.13 0.00 15.8 114.7 0
Smyer 11:59 PM 49 34 36 /16 75 / 37 8.3  (SE) 6.6 21.9 mph 193° @ 0234 PM 3 or 0.12 0.00 14 101.8 0
Snyder 3E 11:55 PM 49 34 36 /16 75 / 37 11.2  (E) 5.4 32 mph 171° @ 1240 PM 3.6 or 0.14 0.00 14.4 102.5 0
Snyder 3SSW 11:59 PM 49 34 36 /16 75 / 37 9.8  (E) 7.2 27.8 mph 169° @ 1212 PM 3 or 0.12 0.00 15.6 111.1 0
South Plains 3ENE 11:59 PM 49 34 36 /16 75 / 37 10.1  (E) 6.6 26.9 mph 175° @ 0340 PM 3 or 0.12 0.00 13.1 98.1 0
Spur 1W 11:55 PM 49 34 36 /16 75 / 37 6.6  (NE) 4.9 23.1 mph 210° @ 0310 PM 2.8 or 0.11 0.00 14.4 105.3 0
St. Lawrence 5SW 11:55 PM 49 34 36 /16 75 / 37 13.5  (SE) 9.5 33 mph 169° @ 0130 PM 3.6 or 0.14 0.00 16.6 114.2 0
Stamford 5ESE 11:59 PM 49 34 36 /16 75 / 37 9.5  (NE) 7.2 30.8 mph 187° @ 1240 PM 3.3 or 0.13 0.00 14.7 106.3 0
Sterling City 4WSW 11:59 PM 49 34 36 /16 75 / 37 7.9  (NE) 5.3 30 mph 161° @ 0110 PM 2.8 or 0.11 0.00 14 97.1 0
Stinnett 1NNW 11:59 PM 49 34 36 /16 75 / 37 10.1  (S) 6.9 26.4 mph 206° @ 1046 AM 3 or 0.12 0.00 15 119 0
Stratford 4WNW 11:59 PM 49 34 36 /16 75 / 37 8.9  (E) 5.8 27 mph 66° @ 0903 PM 3.3 or 0.13 0.00 17.3 139.4 0
Sundown 8WSW 11:55 PM 49 34 36 /16 75 / 37 8.1  (SE) 4 18.7 mph 174° @ 0230 PM 3.3 or 0.13 0.00 14.5 104.9 0
Sweetwater 11SW 11:59 PM 49 34 36 /16 75 / 37 11.8  (E) 8.6 31.7 mph 175° @ 0147 PM 3 or 0.12 0.00 18.4 129.5 0
Tahoka 3NNE 11:59 PM 49 34 36 /16 75 / 37 10.3  (E) 6.4 25.9 mph 190° @ 1217 PM 3.6 or 0.14 0.00 15.9 114.9 0
Tarzan 2WNW 11:59 PM 49 34 36 /16 75 / 37 10.5  (NE) 6.7 25.5 mph 190° @ 1241 PM 3.6 or 0.14 0.00 17.5 122.6 0
Tatum NM 2SW 11:55 PM 49 34 36 /16 75 / 37 9.1  (S) 3.3 23.5 mph 196° @ 0255 PM 4.1 or 0.16 0.00 19 136.4 0
Throckmorton 1SW 11:59 PM 49 34 36 /16 75 / 37 7.2  (NE) 3.1 28 mph 191° @ 0246 PM 2.8 or 0.11 0.00 16.5 120.7 0
Truscott 2SE 11:59 PM 49 34 36 /16 75 / 37 9.4  (E) 6.4 26.9 mph 199° @ 0239 PM 3 or 0.12 0.00 11.9 88.3 0
Tulia 2ENE 11:55 PM 49 34 36 /16 75 / 37 12  (SE) 8.2 27.8 mph 186° @ 0430 PM 3.3 or 0.13 0.00 13.4 101.3 0
Turkey 2WSW 11:55 PM 49 34 36 /16 75 / 37 8.5  (E) 6.1 31.3 mph 163° @ 0240 PM 2.8 or 0.11 0.00 12.3 93.2 0
Umbarger 3NNE 11:59 PM 49 34 36 /16 75 / 37 11.1  (SE) 7.6 24.2 mph 200° @ 0523 PM 3.8 or 0.15 0.00 15.7 120.3 0
Van Horn 3ENE 11:59 PM 49 34 36 /16 75 / 37 7.8  (W) 5.1 22.4 mph 288° @ 0333 PM 3.8 or 0.15 0.00 21.1 141.1 0
Vega 4E 11:59 PM 49 34 36 /16 75 / 37 14.1  (S) 10.9 31.8 mph 184° @ 0457 PM 4.8 or 0.19 0.00 17.4 133.7 0
Vigo Park 11:59 PM 49 34 36 /16 75 / 37 11.5  (SE) 7.5 29.3 mph 209° @ 0137 PM 3 or 0.12 0.00 14 106.2 0
Wall 2E 11:59 PM 49 34 36 /16 75 / 37 9.6  (NE) 6.2 30.1 mph 193° @ 1115 AM 3 or 0.12 0.00 15.1 103.4 0
Weinert 2NNE 11:59 PM 49 34 36 /16 75 / 37 9.2  (E) 6.7 29.8 mph 203° @ 0235 PM 3 or 0.12 0.00 13.7 100.4 0
Welch 11:59 PM 49 34 36 /16 75 / 37 9.7  (SE) 7.1 25.1 mph 184° @ 1207 PM 3.6 or 0.14 0.00 16.3 116.2 0
White River Lake 6NW 11:59 PM 49 34 36 /16 75 / 37 7.8  (NE) 5 27.4 mph 185° @ 0451 PM 3 or 0.12 0.00 15.1 110.3 0
Wolfforth 6SSW 11:55 PM 49 34 36 /16 75 / 37 9.2  (SE) 6.9 21.5 mph 185° @ 0245 PM 3.3 or 0.13 0.00 3 109.8 0

WestTexas Mesonet Home    Site Map/Menu  National Weather Service Lubbock   Soil Data   Latest Observation Page   Previous  Date   Next Last